createdAt,value
2017-09-13T00:02:11.144Z,11.10
2017-09-13T00:04:39.413Z,11.00
2017-09-13T00:07:08.479Z,10.90
2017-09-13T00:09:36.784Z,10.90
2017-09-13T00:12:04.923Z,10.90
2017-09-13T00:14:37.703Z,10.80
2017-09-13T00:17:05.882Z,10.70
2017-09-13T00:19:34.177Z,10.70
2017-09-13T00:22:03.107Z,10.70
2017-09-13T00:24:31.259Z,10.70
2017-09-13T00:27:02.268Z,10.60
2017-09-13T00:29:32.207Z,10.60
2017-09-13T00:32:00.451Z,10.60
2017-09-13T00:34:28.815Z,10.60
2017-09-13T00:36:57.034Z,10.70
2017-09-13T00:39:27.972Z,10.70
2017-09-13T00:41:56.136Z,10.60
2017-09-13T00:44:24.303Z,10.60
2017-09-13T00:47:07.547Z,10.60
2017-09-13T00:49:35.768Z,10.60
2017-09-13T00:52:03.909Z,10.60
2017-09-13T00:54:32.082Z,10.50
2017-09-13T00:57:00.323Z,10.50
2017-09-13T00:59:28.593Z,10.50
2017-09-13T01:01:56.778Z,10.40
2017-09-13T01:04:25.049Z,10.40
2017-09-13T01:06:53.253Z,10.40
2017-09-13T01:09:22.173Z,10.50
2017-09-13T01:11:50.293Z,10.50
2017-09-13T01:14:18.460Z,10.50
2017-09-13T01:16:47.404Z,10.60
2017-09-13T01:19:16.328Z,10.60
2017-09-13T01:21:44.613Z,10.60
2017-09-13T01:24:13.950Z,10.60
2017-09-13T01:26:43.015Z,10.80
2017-09-13T01:29:11.962Z,10.80
2017-09-13T01:31:41.053Z,10.70
2017-09-13T01:34:09.163Z,10.70
2017-09-13T01:36:37.327Z,10.70
2017-09-13T01:39:05.567Z,10.70
2017-09-13T01:41:37.109Z,10.70
2017-09-13T01:44:05.254Z,10.60
2017-09-13T01:46:33.432Z,10.60
2017-09-13T01:49:01.672Z,10.60
2017-09-13T01:51:40.644Z,10.60
2017-09-13T01:54:08.791Z,10.70
2017-09-13T01:56:37.155Z,10.70
2017-09-13T01:59:06.086Z,10.80
2017-09-13T02:01:38.766Z,10.80
2017-09-13T02:04:06.910Z,10.80
2017-09-13T02:06:35.121Z,10.90
2017-09-13T02:09:03.319Z,10.90
2017-09-13T02:11:31.530Z,10.90
2017-09-13T02:13:59.815Z,10.90
2017-09-13T02:16:27.996Z,11.00
2017-09-13T02:18:56.927Z,11.00
2017-09-13T02:21:25.128Z,11.00
2017-09-13T02:23:53.250Z,10.90
2017-09-13T02:26:22.329Z,10.80
2017-09-13T02:28:51.386Z,10.80
2017-09-13T02:31:19.587Z,10.80
2017-09-13T02:33:47.895Z,10.80
2017-09-13T02:36:16.155Z,10.80
2017-09-13T02:38:44.309Z,10.80
2017-09-13T02:41:12.501Z,10.80
2017-09-13T02:43:41.433Z,10.80
2017-09-13T02:49:25.664Z,10.90
2017-09-13T02:51:53.842Z,10.90
2017-09-13T02:54:22.795Z,10.90
2017-09-13T02:56:50.963Z,10.90
2017-09-13T02:59:19.177Z,11.00
2017-09-13T03:01:47.351Z,11.00
2017-09-13T03:04:15.563Z,11.00
2017-09-13T03:06:43.700Z,11.10
2017-09-13T03:09:29.777Z,11.10
2017-09-13T03:11:57.962Z,11.10
2017-09-13T03:14:26.207Z,11.10
2017-09-13T03:16:54.387Z,11.20
2017-09-13T03:19:23.310Z,11.30
2017-09-13T03:21:51.561Z,11.30
2017-09-13T03:24:19.845Z,11.30
2017-09-13T03:26:47.991Z,11.40
2017-09-13T03:29:16.208Z,11.50
2017-09-13T03:31:45.163Z,11.50
2017-09-13T03:34:13.323Z,11.50
2017-09-13T03:36:41.547Z,11.40
2017-09-13T03:39:09.678Z,11.50
2017-09-13T03:41:37.960Z,11.40
2017-09-13T03:44:06.169Z,11.40
2017-09-13T03:46:50.753Z,11.40
2017-09-13T03:49:24.717Z,11.40
2017-09-13T03:51:53.478Z,11.40
2017-09-13T03:54:30.137Z,11.30
2017-09-13T04:06:21.935Z,11.40
2017-09-13T04:14:08.364Z,11.40
2017-09-13T04:19:23.385Z,11.30
2017-09-13T04:25:15.270Z,11.20
2017-09-13T04:27:57.049Z,11.20
2017-09-13T04:30:25.242Z,11.20
2017-09-13T04:33:07.882Z,11.10
2017-09-13T04:43:07.912Z,11.10
2017-09-13T04:45:38.027Z,11.10
2017-09-13T04:48:07.186Z,11.10
2017-09-13T04:50:35.312Z,11.10
2017-09-13T04:53:03.547Z,11.10
2017-09-13T04:55:31.790Z,11.10
2017-09-13T04:57:59.982Z,11.00
2017-09-13T05:00:28.150Z,11.00
2017-09-13T05:02:56.411Z,11.00
2017-09-13T05:05:24.751Z,11.00
2017-09-13T05:07:55.392Z,11.00
2017-09-13T05:10:24.524Z,11.00
2017-09-13T05:12:53.531Z,11.00
2017-09-13T05:15:21.739Z,11.00
2017-09-13T05:17:49.875Z,11.00
2017-09-13T05:20:18.017Z,11.10
2017-09-13T05:22:46.137Z,11.00
2017-09-13T05:25:14.339Z,11.10
2017-09-13T05:27:42.516Z,11.10
2017-09-13T05:30:10.783Z,11.10
2017-09-13T05:32:39.077Z,11.10
2017-09-13T05:35:08.074Z,11.10
2017-09-13T05:37:36.427Z,11.10
2017-09-13T05:40:04.640Z,11.10
2017-09-13T05:42:32.870Z,11.20
2017-09-13T05:45:01.147Z,11.20
2017-09-13T05:47:31.372Z,11.20
2017-09-13T05:49:59.588Z,11.20
2017-09-13T05:52:27.789Z,11.10
2017-09-13T05:54:55.920Z,11.10
2017-09-13T05:57:24.208Z,11.00
2017-09-13T05:59:52.610Z,11.10
2017-09-13T06:02:23.095Z,11.00
2017-09-13T06:04:51.446Z,11.00
2017-09-13T06:07:19.621Z,11.00
2017-09-13T06:09:50.616Z,11.00
2017-09-13T06:12:18.986Z,11.00
2017-09-13T06:14:49.997Z,10.90
2017-09-13T06:17:18.375Z,11.00
2017-09-13T06:19:46.725Z,11.00
2017-09-13T06:22:15.010Z,11.00
2017-09-13T06:24:43.155Z,11.00
2017-09-13T06:27:11.409Z,11.00
2017-09-13T06:29:39.634Z,11.00
2017-09-13T06:32:07.829Z,11.00
2017-09-13T06:34:35.964Z,11.00
2017-09-13T06:37:04.163Z,11.00
2017-09-13T06:39:32.362Z,11.00
2017-09-13T06:42:00.577Z,11.00
2017-09-13T06:44:28.740Z,11.00
2017-09-13T06:46:57.659Z,11.00
2017-09-13T06:49:25.888Z,11.00
2017-09-13T06:51:54.163Z,11.00
2017-09-13T06:54:22.354Z,11.10
2017-09-13T06:56:50.552Z,11.10
2017-09-13T06:59:19.540Z,11.10
2017-09-13T07:01:47.771Z,11.10
2017-09-13T07:04:15.872Z,11.10
2017-09-13T07:06:43.993Z,11.10
2017-09-13T07:09:12.469Z,11.20
2017-09-13T07:11:40.709Z,11.20
2017-09-13T07:14:08.873Z,11.20
2017-09-13T07:16:37.073Z,11.20
2017-09-13T07:19:05.998Z,11.30
2017-09-13T07:21:34.489Z,11.30
2017-09-13T07:24:02.836Z,11.40
2017-09-13T07:26:31.014Z,11.40
2017-09-13T07:28:59.227Z,11.40
2017-09-13T07:31:27.464Z,11.50
2017-09-13T07:33:56.313Z,11.70
2017-09-13T07:36:24.551Z,11.90
2017-09-13T07:38:53.038Z,12.00
2017-09-13T07:41:21.220Z,12.20
2017-09-13T07:43:50.348Z,12.60
2017-09-13T07:46:18.765Z,12.70
2017-09-13T07:48:47.861Z,12.90
2017-09-13T07:51:16.096Z,12.90
2017-09-13T07:53:45.173Z,12.90
2017-09-13T07:56:13.355Z,12.90
2017-09-13T07:58:41.614Z,13.00
2017-09-13T08:01:10.032Z,13.10
2017-09-13T08:03:38.336Z,13.10
2017-09-13T08:06:06.616Z,13.10
2017-09-13T08:08:34.906Z,13.10
2017-09-13T08:11:03.315Z,13.00
2017-09-13T08:13:31.532Z,12.90
2017-09-13T08:15:59.718Z,12.90
2017-09-13T08:18:27.991Z,12.90
2017-09-13T08:20:56.633Z,13.00
2017-09-13T08:23:37.967Z,13.00
2017-09-13T08:26:07.930Z,13.00
2017-09-13T08:28:36.080Z,12.90
2017-09-13T08:31:05.528Z,12.90
2017-09-13T08:33:35.987Z,12.90
2017-09-13T08:36:05.367Z,13.00
2017-09-13T08:38:33.589Z,13.10
2017-09-13T08:41:01.709Z,13.20
2017-09-13T08:46:39.518Z,13.40
2017-09-13T08:49:08.528Z,13.60
2017-09-13T08:54:46.931Z,13.80
2017-09-13T08:57:15.132Z,14.00
2017-09-13T09:03:01.566Z,14.30
2017-09-13T09:05:29.836Z,14.40
2017-09-13T09:07:58.059Z,14.40
2017-09-13T09:10:26.375Z,14.50
2017-09-13T09:12:54.727Z,14.70
2017-09-13T09:18:22.923Z,14.90
2017-09-13T09:20:51.947Z,15.10
2017-09-13T09:23:20.566Z,15.10
2017-09-13T09:25:48.805Z,15.20
2017-09-13T09:31:33.764Z,15.30
2017-09-13T09:34:02.955Z,15.50
2017-09-13T09:39:24.247Z,15.60
2017-09-13T09:41:52.674Z,15.70
2017-09-13T09:44:20.928Z,16.00
2017-09-13T09:46:50.155Z,16.30
2017-09-13T09:49:18.591Z,16.40
2017-09-13T09:51:46.874Z,16.20
2017-09-13T09:54:38.241Z,16.10
2017-09-13T09:57:09.952Z,15.90
2017-09-13T09:59:38.147Z,15.80
2017-09-13T10:02:06.368Z,15.80
2017-09-13T10:07:57.397Z,15.80
2017-09-13T10:10:25.672Z,15.80
2017-09-13T10:12:53.892Z,15.70
2017-09-13T10:15:22.227Z,15.60
2017-09-13T10:17:50.513Z,15.80
2017-09-13T10:20:19.569Z,16.10
2017-09-13T10:22:47.852Z,16.00
2017-09-13T10:25:16.167Z,16.00
2017-09-13T10:27:44.398Z,16.20
2017-09-13T10:30:12.597Z,16.60
2017-09-13T10:32:40.786Z,16.90
2017-09-13T10:35:09.021Z,17.20
2017-09-13T10:37:56.587Z,17.20
2017-09-13T10:40:24.895Z,17.20
2017-09-13T10:42:53.135Z,17.00
2017-09-13T10:45:21.295Z,17.10
2017-09-13T10:50:59.878Z,17.50
2017-09-13T10:53:28.059Z,17.60
2017-09-13T10:55:56.355Z,17.40
2017-09-13T10:58:39.800Z,17.40
2017-09-13T11:01:08.099Z,17.50
2017-09-13T11:03:36.305Z,17.60
2017-09-13T11:06:04.960Z,17.70
2017-09-13T11:08:33.330Z,18.00
2017-09-13T11:13:55.085Z,17.70
2017-09-13T11:16:24.671Z,17.70
2017-09-13T11:18:53.812Z,17.80
2017-09-13T11:21:28.845Z,17.80
2017-09-13T11:23:57.047Z,17.60
2017-09-13T11:26:25.676Z,17.40
2017-09-13T11:28:53.935Z,17.20
2017-09-13T11:31:25.280Z,17.00
2017-09-13T11:33:53.471Z,16.70
2017-09-13T11:36:31.761Z,16.30
2017-09-13T11:39:19.655Z,16.00
2017-09-13T11:41:47.920Z,15.80
2017-09-13T11:47:13.772Z,15.80
2017-09-13T11:52:43.551Z,15.90
2017-09-13T11:55:11.760Z,16.10
2017-09-13T12:00:38.268Z,16.70
2017-09-13T12:03:26.247Z,16.70
2017-09-13T12:05:54.397Z,16.90
2017-09-13T12:08:22.718Z,17.30
2017-09-13T12:10:50.909Z,17.40
2017-09-13T12:13:19.227Z,17.30
2017-09-13T12:19:10.570Z,17.30
2017-09-13T12:21:38.764Z,17.30
2017-09-13T12:24:08.577Z,17.20
2017-09-13T12:26:36.852Z,17.20
2017-09-13T12:29:05.060Z,16.80
2017-09-13T12:31:33.252Z,16.70
2017-09-13T12:34:01.490Z,16.50
2017-09-13T12:36:30.413Z,16.20
2017-09-13T12:39:08.969Z,16.20
2017-09-13T12:41:40.191Z,15.90
2017-09-13T12:50:18.100Z,15.50
2017-09-13T12:55:46.926Z,15.30
2017-09-13T12:58:15.265Z,15.30
2017-09-13T13:03:53.106Z,14.70
2017-09-13T13:09:16.870Z,14.30
2017-09-13T13:11:45.264Z,14.30
2017-09-13T13:14:14.740Z,14.40
2017-09-13T13:16:43.533Z,14.40
2017-09-13T13:19:13.448Z,14.50
2017-09-13T13:21:41.909Z,14.50
2017-09-13T13:24:10.869Z,14.60
2017-09-13T13:26:41.563Z,14.70
2017-09-13T13:29:11.605Z,15.10
2017-09-13T13:31:40.852Z,15.20
2017-09-13T13:34:12.567Z,15.50
2017-09-13T13:36:41.909Z,15.70
2017-09-13T13:39:10.268Z,15.80
2017-09-13T13:41:38.618Z,15.80
2017-09-13T13:44:07.016Z,16.00
2017-09-13T13:46:35.247Z,16.00
2017-09-13T13:49:03.392Z,15.90
2017-09-13T13:51:33.577Z,16.00
2017-09-13T13:54:01.749Z,16.00
2017-09-13T13:56:29.973Z,16.00
2017-09-13T13:58:58.161Z,16.00
2017-09-13T14:01:26.392Z,15.80
2017-09-13T14:03:56.589Z,15.80
2017-09-13T14:06:30.740Z,15.70
2017-09-13T14:09:01.458Z,15.70
2017-09-13T14:11:29.644Z,15.70
2017-09-13T14:13:58.182Z,15.60
2017-09-13T14:16:36.977Z,15.50
2017-09-13T14:19:05.966Z,15.40
2017-09-13T14:21:34.143Z,15.30
2017-09-13T14:24:02.348Z,15.20
2017-09-13T14:26:30.599Z,15.40
2017-09-13T14:28:59.323Z,15.40
2017-09-13T14:31:27.544Z,15.30
2017-09-13T14:33:56.599Z,14.60
2017-09-13T14:36:24.785Z,14.60
2017-09-13T14:38:52.925Z,14.70
2017-09-13T14:41:21.153Z,15.00
2017-09-13T14:43:49.319Z,15.00
2017-09-13T14:52:49.907Z,15.40
2017-09-13T14:55:18.952Z,15.60
2017-09-13T15:01:22.407Z,15.50
2017-09-13T15:03:52.457Z,15.50
2017-09-13T15:09:46.984Z,15.30
2017-09-13T15:12:18.471Z,15.30
2017-09-13T15:14:46.643Z,15.10
2017-09-13T15:17:16.501Z,15.10
2017-09-13T15:19:45.514Z,15.10
2017-09-13T15:22:14.505Z,15.10
2017-09-13T15:24:44.612Z,15.10
2017-09-13T15:27:14.627Z,15.20
2017-09-13T15:29:45.997Z,15.20
2017-09-13T15:32:14.353Z,15.10
2017-09-13T15:34:44.570Z,15.00
2017-09-13T15:37:12.907Z,15.00
2017-09-13T15:39:42.972Z,15.00
2017-09-13T15:42:11.251Z,14.90
2017-09-13T15:44:39.497Z,14.90
2017-09-13T15:47:08.984Z,14.90
2017-09-13T15:49:37.237Z,14.80
2017-09-13T15:52:05.567Z,14.60
2017-09-13T15:54:33.754Z,14.60
2017-09-13T15:57:13.060Z,14.60
2017-09-13T15:59:46.987Z,14.40
2017-09-13T16:02:15.182Z,14.40
2017-09-13T16:04:51.502Z,14.20
2017-09-13T16:07:44.965Z,14.20
2017-09-13T16:10:14.095Z,14.20
2017-09-13T16:21:52.679Z,14.30
2017-09-13T16:24:44.473Z,14.20
2017-09-13T16:27:14.268Z,14.20
2017-09-13T16:35:58.817Z,14.20
2017-09-13T16:38:33.579Z,14.20
2017-09-13T16:41:03.472Z,14.20
2017-09-13T16:50:03.022Z,14.40
2017-09-13T16:55:44.600Z,14.40
2017-09-13T16:58:32.543Z,14.40
2017-09-13T17:04:16.852Z,14.40
2017-09-13T17:16:08.709Z,14.30
2017-09-13T17:18:46.538Z,14.20
2017-09-13T17:21:16.061Z,14.20
2017-09-13T17:23:49.459Z,14.20
2017-09-13T17:26:19.890Z,14.30
2017-09-13T17:28:49.069Z,14.20
2017-09-13T17:31:17.493Z,14.20
2017-09-13T17:33:46.761Z,14.10
2017-09-13T17:36:16.108Z,14.10
2017-09-13T17:38:44.860Z,14.10
2017-09-13T17:41:14.294Z,14.10
2017-09-13T17:43:42.521Z,14.10
2017-09-13T17:46:10.747Z,14.00
2017-09-13T17:48:39.365Z,13.80
2017-09-13T17:51:09.126Z,13.70
2017-09-13T17:56:47.857Z,13.50
2017-09-13T17:59:16.795Z,13.40
2017-09-13T18:01:48.148Z,13.30
2017-09-13T18:04:32.330Z,13.30
2017-09-13T18:07:04.695Z,13.30
2017-09-13T18:12:42.468Z,13.30
2017-09-13T18:15:11.785Z,13.20
2017-09-13T18:17:40.841Z,13.30
2017-09-13T18:20:09.237Z,13.20
2017-09-13T18:22:37.575Z,13.20
2017-09-13T18:28:07.232Z,13.20
2017-09-13T18:30:37.649Z,13.10
2017-09-13T18:33:06.143Z,13.10
2017-09-13T18:35:43.434Z,13.00
2017-09-13T18:38:13.497Z,13.00
2017-09-13T18:40:42.690Z,12.90
2017-09-13T18:43:12.726Z,13.00
2017-09-13T18:45:41.132Z,13.00
2017-09-13T18:48:09.656Z,12.90
2017-09-13T18:50:38.709Z,13.00
2017-09-13T18:53:06.976Z,13.00
2017-09-13T18:55:35.536Z,13.00
2017-09-13T18:58:05.353Z,13.00
2017-09-13T19:00:33.506Z,13.00
2017-09-13T19:03:01.780Z,13.00
2017-09-13T19:08:35.520Z,13.00
2017-09-13T19:11:23.138Z,12.90
2017-09-13T19:13:52.031Z,12.90
2017-09-13T19:16:20.197Z,12.90
2017-09-13T19:18:48.419Z,13.00
2017-09-13T19:24:26.417Z,13.00
2017-09-13T19:26:56.694Z,13.00
2017-09-13T19:29:24.960Z,13.00
2017-09-13T19:35:03.903Z,13.20
2017-09-13T19:37:47.624Z,13.10
2017-09-13T19:40:16.129Z,13.10
2017-09-13T19:42:45.263Z,13.10
2017-09-13T19:48:27.644Z,13.10
2017-09-13T19:54:09.275Z,13.00
2017-09-13T19:56:37.373Z,13.10
2017-09-13T19:59:08.292Z,13.00
2017-09-13T20:01:44.663Z,13.10
2017-09-13T20:04:24.288Z,13.10
2017-09-13T20:06:56.389Z,13.10
2017-09-13T20:09:27.495Z,13.00
2017-09-13T20:12:03.576Z,13.00
2017-09-13T20:14:46.728Z,13.00
2017-09-13T20:17:14.909Z,13.00
2017-09-13T20:19:43.381Z,13.00
2017-09-13T20:22:11.663Z,13.00
2017-09-13T20:24:42.713Z,13.00
2017-09-13T20:27:10.996Z,13.00
2017-09-13T20:29:43.097Z,13.00
2017-09-13T20:35:27.320Z,13.00
2017-09-13T20:37:55.751Z,12.90
2017-09-13T20:40:25.049Z,12.90
2017-09-13T20:42:53.208Z,12.80
2017-09-13T20:48:51.125Z,12.90
2017-09-13T20:51:38.216Z,12.90
2017-09-13T20:54:06.385Z,12.80
2017-09-13T20:56:35.577Z,12.80
2017-09-13T20:59:03.834Z,12.80
2017-09-13T21:01:32.051Z,12.90
2017-09-13T21:04:01.950Z,13.00
2017-09-13T21:06:31.043Z,13.00
2017-09-13T21:09:00.347Z,12.90
2017-09-13T21:11:28.593Z,13.00
2017-09-13T21:13:56.793Z,12.90
2017-09-13T21:16:25.010Z,12.80
2017-09-13T21:18:54.192Z,12.80
2017-09-13T21:21:23.312Z,12.80
2017-09-13T21:23:51.461Z,12.80
2017-09-13T21:26:19.772Z,12.80
2017-09-13T21:28:47.910Z,12.80
2017-09-13T21:31:17.285Z,12.80
2017-09-13T21:33:45.466Z,12.80
2017-09-13T21:36:13.639Z,12.80
2017-09-13T21:38:43.819Z,12.90
2017-09-13T21:41:12.048Z,12.80
2017-09-13T21:43:40.233Z,12.80
2017-09-13T21:46:08.437Z,12.70
2017-09-13T21:48:37.690Z,12.80
2017-09-13T21:51:19.542Z,12.80
2017-09-13T21:54:07.089Z,12.70
2017-09-13T21:56:35.462Z,12.70
2017-09-13T21:59:03.608Z,12.70
2017-09-13T22:01:31.746Z,12.70
2017-09-13T22:04:00.061Z,12.70
2017-09-13T22:06:28.342Z,12.60
2017-09-13T22:08:56.596Z,12.60
2017-09-13T22:11:24.910Z,12.60
2017-09-13T22:13:53.067Z,12.50
2017-09-13T22:16:21.296Z,12.50
2017-09-13T22:18:49.463Z,12.50
2017-09-13T22:21:17.640Z,12.50
2017-09-13T22:23:45.806Z,12.50
2017-09-13T22:26:13.988Z,12.40
2017-09-13T22:28:42.211Z,12.40
2017-09-13T22:31:10.426Z,12.40
2017-09-13T22:33:39.411Z,12.30
2017-09-13T22:36:07.707Z,12.30
2017-09-13T22:38:36.008Z,12.30
2017-09-13T22:41:05.043Z,12.30
2017-09-13T22:43:34.110Z,12.30
2017-09-13T22:46:02.311Z,12.30
2017-09-13T22:48:30.482Z,12.30
2017-09-13T22:50:59.154Z,12.20
2017-09-13T22:53:27.545Z,12.20
2017-09-13T22:55:55.761Z,12.20
2017-09-13T22:58:24.073Z,12.20
2017-09-13T23:00:52.238Z,12.20
2017-09-13T23:03:26.010Z,12.10
2017-09-13T23:05:54.221Z,12.00
2017-09-13T23:08:22.434Z,12.00
2017-09-13T23:10:50.611Z,11.90
2017-09-13T23:13:18.895Z,11.90
2017-09-13T23:15:47.058Z,11.80
2017-09-13T23:18:15.311Z,11.80
2017-09-13T23:20:44.230Z,11.80
2017-09-13T23:23:13.418Z,11.80
2017-09-13T23:25:41.704Z,11.80
2017-09-13T23:30:42.545Z,11.70
2017-09-13T23:33:14.585Z,11.70
2017-09-13T23:35:42.828Z,11.70
2017-09-13T23:40:43.630Z,11.70
2017-09-13T23:46:20.535Z,11.70
2017-09-13T23:48:50.028Z,11.60
2017-09-13T23:51:18.284Z,11.50
2017-09-13T23:53:48.198Z,11.50
2017-09-13T23:56:16.824Z,11.50
